CFG6FC EDDM-EDDF
Flight info
| Callsign | CFG6FC |
|---|---|
| Flight time | 0h 33m |
| Altitude | 24000 |
| Route | N0390F240 GIVMI Y101 ERNAS T161 DEBHI |
| Aircraft | A320/M-SDE3FGHIJ1LORVWXYZ/SB1 |
Departure
| Time | 2026-04-16 09:19 |
|---|---|
| Airport | Munich Airport (EDDM) |
Arrival
| Time | 2026-04-16 09:52 |
|---|---|
| Airport | Frankfurt Main Airport (EDDF) |
| Time | Latitude | Longitude | Altitude | Speed | Heading |
|---|---|---|---|---|---|
| 2026-04-16 08:52 | 48.35089 | 11.78349 | 1486 ft | 0 kts | 83° |
| 2026-04-16 09:04 | 48.35089 | 11.78346 | 1483 ft | 1 kts | 83° |
| 2026-04-16 09:04 | 48.35087 | 11.78320 | 1473 ft | 3 kts | 83° |
| 2026-04-16 09:05 | 48.35084 | 11.78290 | 1478 ft | 3 kts | 83° |
| 2026-04-16 09:05 | 48.35081 | 11.78261 | 1471 ft | 3 kts | 70° |
| 2026-04-16 09:05 | 48.35073 | 11.78235 | 1479 ft | 3 kts | 45° |
| 2026-04-16 09:05 | 48.35057 | 11.78218 | 1472 ft | 3 kts | 15° |
| 2026-04-16 09:06 | 48.35042 | 11.78214 | 1474 ft | 1 kts | 353° |
| 2026-04-16 09:06 | 48.35028 | 11.78216 | 1475 ft | 2 kts | 353° |
| 2026-04-16 09:06 | 48.35023 | 11.78217 | 1478 ft | 0 kts | 353° |
| 2026-04-16 09:08 | 48.35034 | 11.78215 | 1478 ft | 6 kts | 353° |
| 2026-04-16 09:09 | 48.35109 | 11.78202 | 1482 ft | 12 kts | 353° |
| 2026-04-16 09:09 | 48.35189 | 11.78157 | 1481 ft | 13 kts | 301° |
| 2026-04-16 09:09 | 48.35192 | 11.78022 | 1485 ft | 13 kts | 263° |
| 2026-04-16 09:09 | 48.35182 | 11.77872 | 1485 ft | 15 kts | 268° |
| 2026-04-16 09:10 | 48.35261 | 11.77797 | 1480 ft | 16 kts | 354° |
| 2026-04-16 09:10 | 48.35376 | 11.77778 | 1485 ft | 19 kts | 353° |
| 2026-04-16 09:10 | 48.35511 | 11.77754 | 1474 ft | 20 kts | 353° |
| 2026-04-16 09:10 | 48.35645 | 11.77730 | 1484 ft | 19 kts | 354° |
| 2026-04-16 09:11 | 48.35766 | 11.77710 | 1481 ft | 17 kts | 354° |
| 2026-04-16 09:11 | 48.35875 | 11.77691 | 1485 ft | 14 kts | 353° |
| 2026-04-16 09:11 | 48.35979 | 11.77674 | 1485 ft | 15 kts | 353° |
| 2026-04-16 09:11 | 48.36069 | 11.77675 | 1485 ft | 12 kts | 36° |
| 2026-04-16 09:12 | 48.36085 | 11.77804 | 1483 ft | 18 kts | 84° |
| 2026-04-16 09:12 | 48.36102 | 11.78017 | 1480 ft | 19 kts | 83° |
| 2026-04-16 09:12 | 48.36117 | 11.78202 | 1485 ft | 17 kts | 83° |
| 2026-04-16 09:12 | 48.36129 | 11.78369 | 1482 ft | 15 kts | 84° |
| 2026-04-16 09:13 | 48.36141 | 11.78520 | 1481 ft | 14 kts | 83° |
| 2026-04-16 09:13 | 48.36151 | 11.78661 | 1474 ft | 16 kts | 84° |
| 2026-04-16 09:13 | 48.36166 | 11.78854 | 1479 ft | 19 kts | 83° |
| 2026-04-16 09:13 | 48.36181 | 11.79040 | 1479 ft | 17 kts | 83° |
| 2026-04-16 09:14 | 48.36194 | 11.79204 | 1480 ft | 16 kts | 84° |
| 2026-04-16 09:14 | 48.36209 | 11.79410 | 1482 ft | 23 kts | 83° |
| 2026-04-16 09:14 | 48.36225 | 11.79618 | 1480 ft | 19 kts | 84° |
| 2026-04-16 09:14 | 48.36236 | 11.79760 | 1478 ft | 11 kts | 83° |
| 2026-04-16 09:15 | 48.36246 | 11.79890 | 1485 ft | 16 kts | 83° |
| 2026-04-16 09:15 | 48.36261 | 11.80080 | 1485 ft | 18 kts | 83° |
| 2026-04-16 09:15 | 48.36275 | 11.80258 | 1481 ft | 16 kts | 83° |
| 2026-04-16 09:15 | 48.36287 | 11.80418 | 1485 ft | 15 kts | 83° |
| 2026-04-16 09:16 | 48.36297 | 11.80560 | 1485 ft | 13 kts | 84° |
| 2026-04-16 09:16 | 48.36307 | 11.80689 | 1478 ft | 12 kts | 83° |
| 2026-04-16 09:16 | 48.36319 | 11.80837 | 1483 ft | 18 kts | 83° |
| 2026-04-16 09:16 | 48.36333 | 11.81014 | 1485 ft | 15 kts | 83° |
| 2026-04-16 09:17 | 48.36344 | 11.81156 | 1485 ft | 13 kts | 83° |
| 2026-04-16 09:17 | 48.36400 | 11.81205 | 1477 ft | 10 kts | 347° |
| 2026-04-16 09:17 | 48.36444 | 11.81096 | 1479 ft | 17 kts | 293° |
| 2026-04-16 09:17 | 48.36495 | 11.80916 | 1480 ft | 18 kts | 292° |
| 2026-04-16 09:18 | 48.36539 | 11.80761 | 1478 ft | 16 kts | 292° |
| 2026-04-16 09:18 | 48.36564 | 11.80524 | 1485 ft | 43 kts | 269° |
| 2026-04-16 09:18 | 48.36504 | 11.79712 | 1484 ft | 111 kts | 263° |
| 2026-04-16 09:18 | 48.36396 | 11.78288 | 1509 ft | 159 kts | 264° |
| 2026-04-16 09:19 | 48.36280 | 11.76649 | 2178 ft | 157 kts | 264° |
| 2026-04-16 09:19 | 48.36160 | 11.75014 | 2906 ft | 161 kts | 264° |
| 2026-04-16 09:19 | 48.36027 | 11.73231 | 3316 ft | 182 kts | 264° |
| 2026-04-16 09:19 | 48.35871 | 11.71219 | 3640 ft | 206 kts | 264° |
| 2026-04-16 09:20 | 48.35745 | 11.68981 | 4193 ft | 220 kts | 275° |
| 2026-04-16 09:20 | 48.36177 | 11.66736 | 4810 ft | 235 kts | 299° |
| 2026-04-16 09:20 | 48.37061 | 11.64573 | 5325 ft | 254 kts | 302° |
| 2026-04-16 09:20 | 48.38009 | 11.62284 | 6151 ft | 261 kts | 302° |
| 2026-04-16 09:21 | 48.38975 | 11.59939 | 6921 ft | 268 kts | 301° |
| 2026-04-16 09:21 | 48.39957 | 11.57540 | 7631 ft | 270 kts | 301° |
| 2026-04-16 09:21 | 48.40947 | 11.55122 | 8564 ft | 272 kts | 301° |
| 2026-04-16 09:21 | 48.41944 | 11.52677 | 9438 ft | 276 kts | 301° |
| 2026-04-16 09:22 | 48.42950 | 11.50199 | 10293 ft | 280 kts | 301° |
| 2026-04-16 09:22 | 48.43970 | 11.47686 | 11069 ft | 283 kts | 301° |
| 2026-04-16 09:22 | 48.45172 | 11.45282 | 11603 ft | 298 kts | 316° |
| 2026-04-16 09:22 | 48.46914 | 11.43369 | 11848 ft | 322 kts | 326° |
| 2026-04-16 09:23 | 48.48803 | 11.41522 | 12386 ft | 332 kts | 326° |
| 2026-04-16 09:23 | 48.50765 | 11.39644 | 13117 ft | 337 kts | 327° |
| 2026-04-16 09:23 | 48.52758 | 11.37745 | 13885 ft | 340 kts | 327° |
| 2026-04-16 09:23 | 48.54771 | 11.35829 | 14567 ft | 344 kts | 326° |
| 2026-04-16 09:24 | 48.56800 | 11.33891 | 15244 ft | 347 kts | 326° |
| 2026-04-16 09:24 | 48.58844 | 11.31926 | 15922 ft | 350 kts | 326° |
| 2026-04-16 09:24 | 48.60906 | 11.29939 | 16591 ft | 353 kts | 325° |
| 2026-04-16 09:24 | 48.62956 | 11.27964 | 17255 ft | 356 kts | 325° |
| 2026-04-16 09:25 | 48.65052 | 11.25946 | 17908 ft | 359 kts | 325° |
| 2026-04-16 09:25 | 48.67167 | 11.23907 | 18573 ft | 362 kts | 325° |
| 2026-04-16 09:25 | 48.69299 | 11.21846 | 19139 ft | 365 kts | 325° |
| 2026-04-16 09:25 | 48.71444 | 11.19769 | 19726 ft | 367 kts | 325° |
| 2026-04-16 09:26 | 48.73602 | 11.17678 | 20312 ft | 369 kts | 325° |
| 2026-04-16 09:26 | 48.75774 | 11.15572 | 20893 ft | 372 kts | 325° |
| 2026-04-16 09:26 | 48.77935 | 11.13477 | 21462 ft | 375 kts | 325° |
| 2026-04-16 09:26 | 48.80136 | 11.11339 | 22052 ft | 377 kts | 325° |
| 2026-04-16 09:27 | 48.82350 | 11.09183 | 22623 ft | 380 kts | 325° |
| 2026-04-16 09:27 | 48.84585 | 11.07007 | 23180 ft | 382 kts | 325° |
| 2026-04-16 09:27 | 48.86828 | 11.04821 | 23723 ft | 385 kts | 325° |
| 2026-04-16 09:27 | 48.89093 | 11.02609 | 24131 ft | 390 kts | 324° |
| 2026-04-16 09:28 | 48.91406 | 11.00348 | 24250 ft | 401 kts | 325° |
| 2026-04-16 09:28 | 48.93790 | 10.98016 | 24280 ft | 414 kts | 324° |
| 2026-04-16 09:28 | 48.96154 | 10.95426 | 24281 ft | 424 kts | 321° |
| 2026-04-16 09:28 | 48.98476 | 10.92701 | 24275 ft | 430 kts | 320° |
| 2026-04-16 09:29 | 49.00820 | 10.89862 | 24286 ft | 431 kts | 319° |
| 2026-04-16 09:29 | 49.03150 | 10.86992 | 24283 ft | 431 kts | 319° |
| 2026-04-16 09:29 | 49.05480 | 10.84112 | 24282 ft | 431 kts | 319° |
| 2026-04-16 09:29 | 49.07817 | 10.81232 | 24287 ft | 431 kts | 319° |
| 2026-04-16 09:30 | 49.10153 | 10.78366 | 24274 ft | 431 kts | 319° |
| 2026-04-16 09:30 | 49.12494 | 10.75511 | 24279 ft | 431 kts | 319° |
| 2026-04-16 09:30 | 49.14847 | 10.72654 | 24275 ft | 431 kts | 319° |
| 2026-04-16 09:30 | 49.17160 | 10.69844 | 24276 ft | 431 kts | 319° |
| 2026-04-16 09:31 | 49.19507 | 10.66986 | 24269 ft | 431 kts | 319° |
| 2026-04-16 09:31 | 49.21832 | 10.64140 | 24264 ft | 431 kts | 319° |
| 2026-04-16 09:31 | 49.24184 | 10.61259 | 24267 ft | 431 kts | 319° |
| 2026-04-16 09:31 | 49.26521 | 10.58393 | 24266 ft | 431 kts | 319° |
| 2026-04-16 09:32 | 49.28857 | 10.55521 | 24266 ft | 431 kts | 319° |
| 2026-04-16 09:32 | 49.31193 | 10.52642 | 24265 ft | 430 kts | 319° |
| 2026-04-16 09:32 | 49.33525 | 10.49766 | 24264 ft | 430 kts | 319° |
| 2026-04-16 09:32 | 49.35765 | 10.46825 | 24260 ft | 429 kts | 312° |
| 2026-04-16 09:33 | 49.37604 | 10.43253 | 24090 ft | 428 kts | 304° |
| 2026-04-16 09:33 | 49.39328 | 10.39541 | 23822 ft | 427 kts | 304° |
| 2026-04-16 09:33 | 49.41045 | 10.35806 | 23548 ft | 428 kts | 303° |
| 2026-04-16 09:33 | 49.42755 | 10.32062 | 23278 ft | 429 kts | 303° |
| 2026-04-16 09:34 | 49.44467 | 10.28298 | 23007 ft | 430 kts | 303° |
| 2026-04-16 09:34 | 49.46175 | 10.24525 | 22741 ft | 431 kts | 303° |
| 2026-04-16 09:34 | 49.47862 | 10.20786 | 22478 ft | 432 kts | 303° |
| 2026-04-16 09:34 | 49.49574 | 10.16991 | 22213 ft | 433 kts | 303° |
| 2026-04-16 09:35 | 49.51298 | 10.13177 | 21959 ft | 434 kts | 303° |
| 2026-04-16 09:35 | 49.53020 | 10.09371 | 21693 ft | 435 kts | 303° |
| 2026-04-16 09:35 | 49.54752 | 10.05545 | 21429 ft | 436 kts | 303° |
| 2026-04-16 09:35 | 49.56482 | 10.01711 | 20925 ft | 437 kts | 303° |
| 2026-04-16 09:36 | 49.58219 | 9.97857 | 20358 ft | 438 kts | 303° |
| 2026-04-16 09:36 | 49.59960 | 9.93990 | 19795 ft | 440 kts | 303° |
| 2026-04-16 09:36 | 49.61678 | 9.90174 | 19229 ft | 438 kts | 303° |
| 2026-04-16 09:36 | 49.63428 | 9.86273 | 18677 ft | 435 kts | 303° |
| 2026-04-16 09:37 | 49.65100 | 9.82537 | 18226 ft | 422 kts | 303° |
| 2026-04-16 09:37 | 49.66749 | 9.78842 | 17505 ft | 418 kts | 303° |
| 2026-04-16 09:37 | 49.68398 | 9.75138 | 17045 ft | 419 kts | 303° |
| 2026-04-16 09:37 | 49.70032 | 9.71467 | 16522 ft | 410 kts | 303° |
| 2026-04-16 09:38 | 49.71631 | 9.67869 | 16011 ft | 402 kts | 303° |
| 2026-04-16 09:38 | 49.73180 | 9.64381 | 15513 ft | 382 kts | 303° |
| 2026-04-16 09:38 | 49.74643 | 9.61090 | 15023 ft | 361 kts | 303° |
| 2026-04-16 09:38 | 49.76011 | 9.58013 | 14549 ft | 344 kts | 303° |
| 2026-04-16 09:39 | 49.77334 | 9.55032 | 14061 ft | 329 kts | 303° |
| 2026-04-16 09:39 | 49.78601 | 9.52163 | 13543 ft | 316 kts | 303° |
| 2026-04-16 09:39 | 49.79816 | 9.49406 | 13080 ft | 303 kts | 303° |
| 2026-04-16 09:39 | 49.80978 | 9.46769 | 12684 ft | 290 kts | 303° |
| 2026-04-16 09:40 | 49.82090 | 9.44243 | 12301 ft | 279 kts | 303° |
| 2026-04-16 09:40 | 49.83176 | 9.41776 | 11917 ft | 275 kts | 304° |
| 2026-04-16 09:40 | 49.84249 | 9.39338 | 11543 ft | 275 kts | 304° |
| 2026-04-16 09:40 | 49.85320 | 9.36901 | 11256 ft | 272 kts | 304° |
| 2026-04-16 09:41 | 49.86248 | 9.34368 | 11232 ft | 271 kts | 293° |
| 2026-04-16 09:41 | 49.86841 | 9.31638 | 11235 ft | 271 kts | 287° |
| 2026-04-16 09:41 | 49.87543 | 9.28945 | 11104 ft | 268 kts | 304° |
| 2026-04-16 09:41 | 49.88899 | 9.27006 | 10768 ft | 268 kts | 330° |
| 2026-04-16 09:42 | 49.90640 | 9.25975 | 10414 ft | 269 kts | 342° |
| 2026-04-16 09:42 | 49.92456 | 9.25195 | 9992 ft | 272 kts | 344° |
| 2026-04-16 09:42 | 49.94298 | 9.24427 | 9539 ft | 276 kts | 344° |
| 2026-04-16 09:42 | 49.96157 | 9.23665 | 9090 ft | 277 kts | 344° |
| 2026-04-16 09:43 | 49.98018 | 9.22864 | 8638 ft | 277 kts | 338° |
| 2026-04-16 09:43 | 49.99606 | 9.21247 | 8199 ft | 275 kts | 311° |
| 2026-04-16 09:43 | 50.00755 | 9.18928 | 7801 ft | 275 kts | 305° |
| 2026-04-16 09:43 | 50.01840 | 9.16499 | 7471 ft | 272 kts | 304° |
| 2026-04-16 09:44 | 50.02907 | 9.14096 | 7148 ft | 268 kts | 304° |
| 2026-04-16 09:44 | 50.03955 | 9.11726 | 6874 ft | 263 kts | 303° |
| 2026-04-16 09:44 | 50.04984 | 9.09405 | 6617 ft | 255 kts | 304° |
| 2026-04-16 09:44 | 50.05972 | 9.07194 | 6280 ft | 243 kts | 304° |
| 2026-04-16 09:45 | 50.06922 | 9.05072 | 5850 ft | 236 kts | 304° |
| 2026-04-16 09:45 | 50.07799 | 9.03131 | 5418 ft | 231 kts | 304° |
| 2026-04-16 09:45 | 50.08723 | 9.01094 | 5013 ft | 230 kts | 304° |
| 2026-04-16 09:45 | 50.09643 | 8.99068 | 4654 ft | 230 kts | 304° |
| 2026-04-16 09:46 | 50.10561 | 8.97042 | 4257 ft | 231 kts | 303° |
| 2026-04-16 09:46 | 50.11247 | 8.94820 | 4030 ft | 226 kts | 287° |
| 2026-04-16 09:46 | 50.11607 | 8.92453 | 4003 ft | 225 kts | 273° |
| 2026-04-16 09:46 | 50.11430 | 8.90073 | 4005 ft | 218 kts | 251° |
| 2026-04-16 09:47 | 50.10927 | 8.87919 | 4009 ft | 203 kts | 250° |
| 2026-04-16 09:47 | 50.10460 | 8.85939 | 3976 ft | 189 kts | 251° |
| 2026-04-16 09:47 | 50.10014 | 8.84042 | 3768 ft | 184 kts | 250° |
| 2026-04-16 09:47 | 50.09575 | 8.82179 | 3545 ft | 183 kts | 250° |
| 2026-04-16 09:48 | 50.09138 | 8.80326 | 3323 ft | 187 kts | 250° |
| 2026-04-16 09:48 | 50.08689 | 8.78421 | 3074 ft | 187 kts | 250° |
| 2026-04-16 09:48 | 50.08235 | 8.76497 | 2806 ft | 191 kts | 250° |
| 2026-04-16 09:48 | 50.07782 | 8.74580 | 2535 ft | 183 kts | 250° |
| 2026-04-16 09:49 | 50.07360 | 8.72797 | 2305 ft | 169 kts | 250° |
| 2026-04-16 09:49 | 50.06973 | 8.71163 | 2110 ft | 152 kts | 250° |
| 2026-04-16 09:49 | 50.06630 | 8.69677 | 1891 ft | 140 kts | 253° |
| 2026-04-16 09:49 | 50.06518 | 8.68197 | 1600 ft | 136 kts | 266° |
| 2026-04-16 09:50 | 50.06412 | 8.66759 | 1391 ft | 134 kts | 256° |
| 2026-04-16 09:50 | 50.06122 | 8.65377 | 1269 ft | 135 kts | 246° |
| 2026-04-16 09:50 | 50.05782 | 8.64012 | 1090 ft | 136 kts | 248° |
| 2026-04-16 09:50 | 50.05451 | 8.62643 | 915 ft | 136 kts | 249° |
| 2026-04-16 09:51 | 50.05124 | 8.61255 | 737 ft | 136 kts | 246° |
| 2026-04-16 09:51 | 50.04794 | 8.59861 | 570 ft | 137 kts | 247° |
| 2026-04-16 09:51 | 50.04459 | 8.58470 | 393 ft | 134 kts | 247° |
| 2026-04-16 09:51 | 50.04185 | 8.57316 | 367 ft | 78 kts | 250° |
| 2026-04-16 09:52 | 50.04073 | 8.56853 | 363 ft | 23 kts | 250° |
| 2026-04-16 09:52 | 50.04018 | 8.56609 | 360 ft | 29 kts | 250° |
| 2026-04-16 09:52 | 50.03994 | 8.56440 | 353 ft | 9 kts | 271° |
| 2026-04-16 09:52 | 50.03997 | 8.56343 | 358 ft | 9 kts | 276° |
| 2026-04-16 09:53 | 50.04005 | 8.56266 | 355 ft | 6 kts | 280° |
| 2026-04-16 09:53 | 50.04017 | 8.56177 | 352 ft | 9 kts | 285° |
| 2026-04-16 09:53 | 50.04049 | 8.56133 | 353 ft | 5 kts | 335° |
| 2026-04-16 09:53 | 50.04089 | 8.56154 | 357 ft | 12 kts | 37° |
| 2026-04-16 09:54 | 50.04135 | 8.56310 | 353 ft | 17 kts | 69° |
| 2026-04-16 09:54 | 50.04177 | 8.56487 | 358 ft | 20 kts | 70° |
| 2026-04-16 09:54 | 50.04227 | 8.56703 | 362 ft | 23 kts | 70° |
| 2026-04-16 09:54 | 50.04287 | 8.56953 | 361 ft | 28 kts | 69° |
| 2026-04-16 09:55 | 50.04346 | 8.57200 | 364 ft | 26 kts | 70° |
| 2026-04-16 09:55 | 50.04410 | 8.57467 | 361 ft | 27 kts | 70° |
| 2026-04-16 09:55 | 50.04459 | 8.57671 | 367 ft | 17 kts | 70° |
| 2026-04-16 09:55 | 50.04501 | 8.57851 | 368 ft | 19 kts | 69° |
| 2026-04-16 09:56 | 50.04544 | 8.58027 | 369 ft | 18 kts | 69° |
| 2026-04-16 09:56 | 50.04590 | 8.58219 | 367 ft | 18 kts | 69° |
| 2026-04-16 09:56 | 50.04634 | 8.58404 | 370 ft | 19 kts | 69° |
| 2026-04-16 09:56 | 50.04678 | 8.58590 | 370 ft | 16 kts | 70° |
| 2026-04-16 09:57 | 50.04716 | 8.58734 | 372 ft | 14 kts | 65° |
| 2026-04-16 09:57 | 50.04753 | 8.58875 | 369 ft | 14 kts | 70° |
| 2026-04-16 09:57 | 50.04785 | 8.59013 | 368 ft | 11 kts | 69° |
| 2026-04-16 09:57 | 50.04808 | 8.59112 | 371 ft | 7 kts | 70° |
| 2026-04-16 09:58 | 50.04828 | 8.59196 | 372 ft | 8 kts | 69° |
| 2026-04-16 09:58 | 50.04877 | 8.59210 | 370 ft | 9 kts | 338° |
| 2026-04-16 09:58 | 50.04911 | 8.59191 | 367 ft | 2 kts | 341° |
| 2026-04-16 09:58 | 50.04920 | 8.59186 | 367 ft | 0 kts | 340° |